Mammoth, AZ (85618)

04:01 PM MST on December 17, 2014 (GMT -0700)
San Manuel | Change Station
CLOSE
Current Station
Personligvejrstation
Location: San Manuel, AZ
Højde: 3461 ft
Vejrstationer i nærheden

Elev 3461 ft 32.61 °N, 110.63 °W | Updated 6 minutes ago

Let skyet
Let skyet
47.7 ° F
Føles som 48 ° F
N
2.7
Vind Skiftende Vind SSV

I dag
Høj -- | Lav -- ° F
--% Risiko for nedbør
I går
Høj -- | Lav -- ° F
Precip. -- tommer
7:18 AM 5:18 PM
Aftagende halvmåne, 19% visible
Tryk 30.00 tommer
Sigtbarhed 10.0 mil
Skyer Spredte skyer 4900 ft
Delvis skyet 7000 ft
Vindeffekt 48 ° F
Dugpunkt 46 ° F
Luftfugtighed 92%
Regnmængde 0.15 tommer
Snedybde Ikke tilgængelig.
UV 0 fra 12
Pollen 4.70 fra 12
Luftkvalitet Ikke tilgængelig.
Flu Activity Ikke tilgængelig.
METAR KDMA 172258Z AUTO 01009KT 10SM SCT049 BKN070 13/08 A3004 RMK AO2 RAE09DZB09E11 SLP158 P0000 T01260076 $

More Conditions Fewer Conditions

Tryk 30.00 tommer
Sigtbarhed 10.0 mil
Skyer Spredte skyer 4900 ft
Delvis skyet 7000 ft
Vindeffekt 48 ° F
Dugpunkt 46 ° F
Luftfugtighed 92%
Regnmængde 0.15 tommer
Snedybde Ikke tilgængelig.
UV 0 fra 12
Pollen 4.70 fra 12
Luftkvalitet Ikke tilgængelig.
Flu Activity Ikke tilgængelig.
METAR KDMA 172258Z AUTO 01009KT 10SM SCT049 BKN070 13/08 A3004 RMK AO2 RAE09DZB09E11 SLP158 P0000 T01260076 $

More Conditions Fewer Conditions

Nowcast | as of 3:20 PM MST on December 17, 2014

Scattered light to moderate showers continued across much of the area early this afternoon. Precipitation amounts will generally be one- quarter of an inch or less. Showers will tapper off later this evening...before another weather system brings more valley rain and mountain snow to the area on Thursday.

×

10-Day Weather Forecast

Almanac

Astronomi

Dec. 17, 2014 Opgang Nedgang
Faktisktidspunkt
Civilttusmørke
Nautisktusmørke
Astronomisktusmørke
Måne
Synligtlys’ længde
Dagens længde
Tomorrow will be .
, % of the Moon is Illuminated

Ekstremer i dag

State Highs State Lows

Community

WunderPhotos

Upload Photos

1,778,819 Billeder uploaded!

WunderBlogs® & News

Nearby

Luftkvalitet

  Luftkvalitet AQ-indeks Forureningskilder
Not available.

Snedybde

Station Depth Højde

Jordskælvsaktivitet

By Distance Mag. Time & Date
Minimum magnitude displayed is 2.5.

Kystnære vandtemperaturer

Sted Temperatur

Vejrstationer i nærheden